createdAt,value
2019-02-22T00:03:23.147Z,99434.94
2019-02-22T00:07:29.902Z,99435.50
2019-02-22T00:11:35.687Z,99434.77
2019-02-22T00:15:41.422Z,99434.22
2019-02-22T00:19:48.637Z,99435.03
2019-02-22T00:23:55.624Z,99430.20
2019-02-22T00:28:02.339Z,99443.09
2019-02-22T00:32:08.033Z,99444.25
2019-02-22T00:36:14.109Z,99440.75
2019-02-22T00:40:19.908Z,99439.38
2019-02-22T00:44:25.677Z,99437.03
2019-02-22T00:48:31.382Z,99437.63
2019-02-22T00:52:37.100Z,99449.32
2019-02-22T00:56:42.784Z,99446.20
2019-02-22T01:00:48.497Z,99450.17
2019-02-22T01:04:54.191Z,99444.92
2019-02-22T01:09:00.004Z,99446.89
2019-02-22T01:13:05.823Z,99447.44
2019-02-22T01:17:11.600Z,99448.56
2019-02-22T01:21:17.309Z,99450.30
2019-02-22T01:25:24.767Z,99441.55
2019-02-22T01:29:30.461Z,99451.67
2019-02-22T01:33:36.178Z,99450.09
2019-02-22T01:37:41.907Z,99441.48
2019-02-22T01:41:47.610Z,99427.09
2019-02-22T01:45:53.321Z,99433.99
2019-02-22T01:49:59.022Z,99436.59
2019-02-22T01:54:04.797Z,99441.32
2019-02-22T01:58:10.477Z,99437.96
2019-02-22T02:02:16.252Z,99444.16
2019-02-22T02:06:21.992Z,99441.03
2019-02-22T02:10:27.692Z,99452.55
2019-02-22T02:14:33.460Z,99451.75
2019-02-22T02:18:39.313Z,99455.42
2019-02-22T02:22:45.013Z,99456.36
2019-02-22T02:26:50.737Z,99450.52
2019-02-22T02:30:56.527Z,99460.50
2019-02-22T02:35:02.263Z,99458.16
2019-02-22T02:39:08.661Z,99456.23
2019-02-22T02:43:14.559Z,99466.91
2019-02-22T02:47:20.259Z,99461.05
2019-02-22T02:51:25.966Z,99469.25
2019-02-22T02:55:36.091Z,99475.30
2019-02-22T02:59:41.760Z,99472.58
2019-02-22T03:03:50.849Z,99481.09
2019-02-22T03:07:56.741Z,99484.20
2019-02-22T03:12:02.446Z,99486.93
2019-02-22T03:16:08.146Z,99485.17
2019-02-22T03:20:13.834Z,99490.39
2019-02-22T03:24:19.536Z,99489.23
2019-02-22T03:28:25.237Z,99499.15
2019-02-22T03:32:30.953Z,99503.84
2019-02-22T03:36:37.456Z,99503.14
2019-02-22T03:40:43.130Z,99507.03
2019-02-22T03:44:48.817Z,99514.42
2019-02-22T03:48:54.535Z,99509.73
2019-02-22T03:53:01.874Z,99501.98
2019-02-22T03:57:07.728Z,99504.38
2019-02-22T04:01:13.425Z,99513.13
2019-02-22T04:05:19.128Z,99512.95
2019-02-22T04:09:24.897Z,99516.84
2019-02-22T04:13:30.606Z,99522.86
2019-02-22T04:17:36.284Z,99519.64
2019-02-22T04:21:42.067Z,99529.59
2019-02-22T04:25:47.758Z,99535.85
2019-02-22T04:29:53.478Z,99528.64
2019-02-22T04:33:59.171Z,99531.37
2019-02-22T04:38:04.862Z,99541.67
2019-02-22T04:42:10.573Z,99546.21
2019-02-22T04:46:18.205Z,99554.23
2019-02-22T04:50:23.750Z,99559.48
2019-02-22T04:54:29.459Z,99562.21
2019-02-22T04:58:35.140Z,99563.96
2019-02-22T05:02:40.845Z,99566.87
2019-02-22T05:06:46.559Z,99564.38
2019-02-22T05:10:52.265Z,99572.23
2019-02-22T05:14:57.975Z,99579.50
2019-02-22T05:19:03.683Z,99569.73
2019-02-22T05:23:09.474Z,99565.46
2019-02-22T05:27:15.203Z,99562.76
2019-02-22T05:31:20.897Z,99569.22
2019-02-22T05:35:26.591Z,99580.31
2019-02-22T05:39:32.275Z,99575.47
2019-02-22T05:43:38.038Z,99584.66
2019-02-22T05:47:43.758Z,99588.55
2019-02-22T05:51:49.491Z,99590.87
2019-02-22T05:55:55.222Z,99589.69
2019-02-22T06:00:01.007Z,99597.56
2019-02-22T06:04:07.245Z,99594.31
2019-02-22T06:08:12.948Z,99606.41
2019-02-22T06:12:18.796Z,99605.68
2019-02-22T06:16:24.503Z,99595.56
2019-02-22T06:20:30.266Z,99597.91
2019-02-22T06:24:36.051Z,99619.13
2019-02-22T06:28:44.340Z,99627.70
2019-02-22T06:32:51.681Z,99638.38
2019-02-22T06:37:02.200Z,99644.56
2019-02-22T06:41:06.359Z,99652.32
2019-02-22T06:45:12.087Z,99651.52
2019-02-22T06:49:17.815Z,99656.38
2019-02-22T06:53:23.533Z,99659.68
2019-02-22T06:57:29.221Z,99662.62
2019-02-22T07:01:34.920Z,99659.91
2019-02-22T07:05:40.742Z,99671.42
2019-02-22T07:09:46.435Z,99665.20
2019-02-22T07:13:52.118Z,99669.86
2019-02-22T07:17:57.810Z,99674.33
2019-02-22T07:22:03.788Z,99665.75
2019-02-22T07:26:09.493Z,99673.54
2019-02-22T07:30:16.210Z,99682.53
2019-02-22T07:34:21.893Z,99669.09
2019-02-22T07:38:27.594Z,99684.88
2019-02-22T07:42:33.302Z,99691.50
2019-02-22T07:46:39.045Z,99701.22
2019-02-22T07:50:56.586Z,99699.12
2019-02-22T07:54:52.142Z,99697.95
2019-02-22T07:58:57.854Z,99709.44
2019-02-22T08:03:03.579Z,99720.92
2019-02-22T08:07:09.349Z,99727.75
2019-02-22T08:11:15.057Z,99724.60
2019-02-22T08:15:20.740Z,99726.56
2019-02-22T08:19:26.440Z,99721.08
2019-02-22T08:23:32.156Z,99727.30
2019-02-22T08:27:40.030Z,99721.45
2019-02-22T08:31:45.315Z,99728.84
2019-02-22T08:35:51.239Z,99732.33
2019-02-22T08:39:58.852Z,99728.61
2019-02-22T08:44:04.663Z,99736.59
2019-02-22T08:48:10.465Z,99728.30
2019-02-22T08:52:16.190Z,99739.43
2019-02-22T08:56:21.878Z,99749.42
2019-02-22T09:00:27.584Z,99746.45
2019-02-22T09:04:33.356Z,99749.75
2019-02-22T09:08:39.116Z,99747.56
2019-02-22T09:12:44.788Z,99747.94
2019-02-22T09:16:50.497Z,99756.47
2019-02-22T09:20:57.923Z,99758.77
2019-02-22T09:25:04.123Z,99761.52
2019-02-22T09:29:09.818Z,99759.45
2019-02-22T09:33:15.499Z,99766.77
2019-02-22T09:37:21.203Z,99770.24
2019-02-22T09:41:26.925Z,99789.08
2019-02-22T09:45:32.620Z,99779.06
2019-02-22T09:49:38.324Z,99775.42
2019-02-22T09:53:44.019Z,99777.08
2019-02-22T09:57:51.364Z,99784.20
2019-02-22T10:01:57.081Z,99778.92
2019-02-22T10:06:03.754Z,99779.09
2019-02-22T10:10:11.343Z,99790.13
2019-02-22T10:14:17.043Z,99789.98
2019-02-22T10:18:22.749Z,99798.90
2019-02-22T10:22:28.484Z,99808.25
2019-02-22T10:26:34.188Z,99799.37
2019-02-22T10:30:39.897Z,99801.94
2019-02-22T10:34:45.670Z,99808.72
2019-02-22T10:38:51.372Z,99807.77
2019-02-22T10:42:57.070Z,99814.84
2019-02-22T10:47:02.778Z,99822.55
2019-02-22T10:51:08.509Z,99816.84
2019-02-22T10:55:15.990Z,99814.37
2019-02-22T10:59:21.672Z,99815.48
2019-02-22T11:03:27.378Z,99823.43
2019-02-22T11:07:33.086Z,99820.89
2019-02-22T11:11:39.895Z,99814.17
2019-02-22T11:15:45.616Z,99815.82
2019-02-22T11:19:51.321Z,99808.34
2019-02-22T11:23:57.026Z,99816.30
2019-02-22T11:28:02.711Z,99809.18
2019-02-22T11:32:08.490Z,99811.13
2019-02-22T11:36:14.196Z,99809.00
2019-02-22T11:40:19.889Z,99811.95
2019-02-22T11:44:25.639Z,99808.23
2019-02-22T11:48:31.331Z,99822.33
2019-02-22T11:52:37.043Z,99815.42
2019-02-22T11:56:42.732Z,99818.24
2019-02-22T12:00:48.649Z,99821.64
2019-02-22T12:04:54.323Z,99816.49
2019-02-22T12:09:00.021Z,99816.59
2019-02-22T12:13:05.784Z,99820.69
2019-02-22T12:17:11.544Z,99823.28
2019-02-22T12:21:18.212Z,99829.23
2019-02-22T12:25:23.941Z,99830.00
2019-02-22T12:29:29.618Z,99835.75
2019-02-22T12:33:35.341Z,99841.53
2019-02-22T12:37:41.311Z,99848.31
2019-02-22T12:41:47.057Z,99849.75
2019-02-22T12:45:52.773Z,99856.59
2019-02-22T12:49:58.523Z,99858.72
2019-02-22T12:54:04.320Z,99855.69
2019-02-22T12:58:10.036Z,99862.41
2019-02-22T13:02:15.865Z,99870.67
2019-02-22T13:06:21.619Z,99863.44
2019-02-22T13:10:27.320Z,99868.70
2019-02-22T13:14:33.019Z,99861.41
2019-02-22T13:18:38.715Z,99863.22
2019-02-22T13:22:44.486Z,99864.44
2019-02-22T13:26:50.201Z,99869.61
2019-02-22T13:30:55.938Z,99865.50
2019-02-22T13:35:01.639Z,99865.75
2019-02-22T13:39:20.266Z,99863.48
2019-02-22T13:43:26.023Z,99869.10
2019-02-22T13:47:31.767Z,99879.80
2019-02-22T13:51:37.460Z,99877.06
2019-02-22T13:55:43.272Z,99889.18
2019-02-22T13:59:48.991Z,99891.20
2019-02-22T14:03:54.686Z,99889.09
2019-02-22T14:08:01.368Z,99892.22
2019-02-22T14:12:07.057Z,99894.75
2019-02-22T14:16:12.755Z,99893.45
2019-02-22T14:20:18.610Z,99887.47
2019-02-22T14:24:24.310Z,99885.37
2019-02-22T14:34:52.580Z,99894.73
2019-02-22T14:39:18.985Z,99900.05
2019-02-22T14:43:24.683Z,99897.95
2019-02-22T14:47:30.394Z,99902.84
2019-02-22T14:51:36.102Z,99900.56
2019-02-22T14:56:17.697Z,99902.16
2019-02-22T15:00:23.425Z,99903.47
2019-02-22T15:04:29.133Z,99901.50
2019-02-22T15:08:34.841Z,99900.94
2019-02-22T15:12:40.592Z,99894.73
2019-02-22T15:16:51.822Z,99896.52
2019-02-22T15:20:57.504Z,99898.88
2019-02-22T15:25:03.214Z,99906.53
2019-02-22T15:29:08.905Z,99898.73
2019-02-22T15:33:14.610Z,99901.72
2019-02-22T15:37:20.384Z,99906.42
2019-02-22T15:41:26.113Z,99902.91
2019-02-22T15:45:32.790Z,99904.88
2019-02-22T15:49:38.451Z,99903.89
2019-02-22T15:53:44.180Z,99910.00
2019-02-22T15:57:49.839Z,99908.45
2019-02-22T16:01:56.124Z,99905.86
2019-02-22T16:06:01.841Z,99908.77
2019-02-22T16:10:09.963Z,99908.08
2019-02-22T16:14:15.941Z,99913.76
2019-02-22T16:18:21.606Z,99918.67
2019-02-22T16:22:27.353Z,99917.87
2019-02-22T16:26:33.043Z,99920.05
2019-02-22T16:30:38.819Z,99926.50
2019-02-22T16:34:46.610Z,99926.42
2019-02-22T16:38:51.870Z,99927.61
2019-02-22T16:42:57.898Z,99914.67
2019-02-22T16:47:03.595Z,99921.52
2019-02-22T16:51:09.290Z,99931.13
2019-02-22T16:55:16.980Z,99935.89
2019-02-22T16:59:22.648Z,99938.31
2019-02-22T17:03:28.348Z,99945.36
2019-02-22T17:07:34.058Z,99941.84
2019-02-22T17:11:39.766Z,99940.34
2019-02-22T17:15:45.525Z,99948.56
2019-02-22T17:19:51.211Z,99955.05
2019-02-22T17:23:56.907Z,99951.19
2019-02-22T17:28:02.616Z,99953.77
2019-02-22T17:32:13.300Z,99956.30
2019-02-22T17:36:26.733Z,99960.23
2019-02-22T17:40:35.859Z,99972.94
2019-02-22T17:44:44.975Z,99961.44
2019-02-22T17:48:50.640Z,99970.48
2019-02-22T17:52:56.373Z,99968.53
2019-02-22T17:57:02.052Z,99973.23
2019-02-22T18:01:08.122Z,99983.36
2019-02-22T18:05:13.880Z,99980.45
2019-02-22T18:09:19.594Z,99976.54
2019-02-22T18:13:25.310Z,99976.52
2019-02-22T18:17:31.973Z,99985.09
2019-02-22T18:21:37.675Z,99987.82
2019-02-22T18:25:43.443Z,99986.27
2019-02-22T18:29:49.139Z,100000.48
2019-02-22T18:33:54.837Z,99998.32
2019-02-22T18:38:00.522Z,99997.52
2019-02-22T18:42:06.445Z,100001.78
2019-02-22T18:46:12.157Z,100000.97
2019-02-22T18:50:17.926Z,100002.02
2019-02-22T18:54:23.631Z,100009.02
2019-02-22T18:58:29.390Z,100010.97
2019-02-22T19:02:35.087Z,100009.00
2019-02-22T19:06:40.796Z,100004.33
2019-02-22T19:10:46.671Z,100001.42
2019-02-22T19:14:52.428Z,100003.41
2019-02-22T19:18:58.081Z,100010.02
2019-02-22T19:23:03.995Z,100002.97
2019-02-22T19:27:09.701Z,100005.52
2019-02-22T19:31:15.415Z,100007.66
2019-02-22T19:35:21.183Z,100010.59
2019-02-22T19:39:26.876Z,100009.02
2019-02-22T19:43:32.613Z,100015.00
2019-02-22T19:47:41.869Z,100017.67
2019-02-22T19:51:45.831Z,100020.74
2019-02-22T19:55:52.510Z,100019.59
2019-02-22T19:59:58.215Z,100029.92
2019-02-22T20:04:03.927Z,100034.00
2019-02-22T20:08:09.648Z,100040.23
2019-02-22T20:12:15.336Z,100039.41
2019-02-22T20:16:21.198Z,100043.84
2019-02-22T20:20:27.866Z,100040.30
2019-02-22T20:24:34.643Z,100038.94
2019-02-22T20:28:40.399Z,100037.77
2019-02-22T20:32:46.151Z,100038.96
2019-02-22T20:36:51.873Z,100036.41
2019-02-22T20:40:57.601Z,100042.61
2019-02-22T20:45:03.390Z,100053.30
2019-02-22T20:49:09.124Z,100054.08
2019-02-22T20:53:14.798Z,100055.50
2019-02-22T20:57:20.505Z,100066.39
2019-02-22T21:01:26.269Z,100068.95
2019-02-22T21:05:32.053Z,100070.50
2019-02-22T21:09:37.757Z,100078.31
2019-02-22T21:13:43.621Z,100079.24
2019-02-22T21:17:49.334Z,100085.17
2019-02-22T21:21:55.048Z,100084.23
2019-02-22T21:26:00.775Z,100088.80
2019-02-22T21:30:20.614Z,100089.16
2019-02-22T21:34:26.313Z,100101.20
2019-02-22T21:38:32.043Z,100101.31
2019-02-22T21:42:37.752Z,100108.28
2019-02-22T21:46:43.630Z,100113.06
2019-02-22T21:50:49.337Z,100105.37
2019-02-22T21:54:55.011Z,100114.06
2019-02-22T21:59:00.723Z,100109.45
2019-02-22T22:03:06.663Z,100104.14
2019-02-22T22:07:12.417Z,100101.33
2019-02-22T22:11:18.171Z,100103.11
2019-02-22T22:15:24.921Z,100099.81
2019-02-22T22:19:30.639Z,100093.77
2019-02-22T22:23:36.353Z,100088.61
2019-02-22T22:27:42.074Z,100087.02
2019-02-22T22:31:47.760Z,100090.09
2019-02-22T22:35:53.563Z,100092.40
2019-02-22T22:39:59.284Z,100098.58
2019-02-22T22:44:05.043Z,100103.12
2019-02-22T22:48:10.733Z,100101.41
2019-02-22T22:52:16.479Z,100101.66
2019-02-22T22:56:22.189Z,100102.12
2019-02-22T23:00:50.121Z,100107.52
2019-02-22T23:04:58.218Z,100112.03
2019-02-22T23:09:06.580Z,100121.00
2019-02-22T23:13:13.876Z,100120.09
2019-02-22T23:17:19.592Z,100118.56
2019-02-22T23:21:26.455Z,100118.05
2019-02-22T23:25:32.107Z,100117.64
2019-02-22T23:29:37.807Z,100109.57
2019-02-22T23:33:43.614Z,100109.02
2019-02-22T23:37:49.328Z,100113.10
2019-02-22T23:41:55.041Z,100109.02
2019-02-22T23:46:00.743Z,100114.33
2019-02-22T23:50:09.075Z,100120.59
2019-02-22T23:54:14.765Z,100136.17
2019-02-22T23:58:20.474Z,100129.56
